Lockney, West Virginia
Current Conditions -  °F | °C
As of 8:55 PM on Friday 21 Nov 2014 (Local Time) from KW22 Reporting Station
NA  
Wind Chill: 21°   Ceiling: NA
Heat Index: 21°   Visibility: 10mi
Dew Point: 10°   Wind: 0mph
Humidity: 63%   Direction: NA
Pressure: 30.44"   Gusts: NA
Location:  38.86°N, 80.97°W
Report Text: KW22 220155Z AUTO 00000KT 10SM M06/M12 A3044 RMK AO2
Loading
Personal Weather Stations






























Interactive Weather Map New forecast layout! Learn more

10-Day Weather Forecast

Advertisements
Track Severe Weather on mobile